createdAt,value
2023-05-18T06:21:12.392Z,9.64
2023-05-18T06:23:41.691Z,9.67
2023-05-18T06:31:32.543Z,9.97
2023-05-18T06:33:58.964Z,10.13
2023-05-18T06:36:25.331Z,10.20
2023-05-18T06:38:51.861Z,10.34
2023-05-18T06:41:18.250Z,10.35
2023-05-18T06:43:44.708Z,10.39
2023-05-18T06:46:22.109Z,10.48
2023-05-18T06:48:48.468Z,10.54
2023-05-18T06:51:14.811Z,10.67
2023-05-18T06:53:41.229Z,10.68
2023-05-18T06:56:07.936Z,10.72
2023-05-18T06:58:34.275Z,10.85
2023-05-18T07:01:01.120Z,10.97
2023-05-18T07:06:06.445Z,11.20
2023-05-18T07:08:33.281Z,11.32
2023-05-18T07:10:59.662Z,11.41
2023-05-18T07:13:26.053Z,11.48
2023-05-18T07:15:52.516Z,11.60
2023-05-18T07:18:18.874Z,11.66
2023-05-18T07:20:45.299Z,11.79
2023-05-18T07:23:11.751Z,11.86
2023-05-18T07:25:38.102Z,11.79
2023-05-18T07:28:04.586Z,11.75
2023-05-18T07:32:58.208Z,11.90
2023-05-18T07:35:24.600Z,12.01
2023-05-18T07:37:50.931Z,12.10
2023-05-18T07:45:41.305Z,12.54
2023-05-18T08:01:34.391Z,13.14
2023-05-18T08:04:01.456Z,13.17
2023-05-18T08:17:05.340Z,13.54
2023-05-18T08:19:32.054Z,13.60
2023-05-18T08:21:58.675Z,13.68
2023-05-18T08:42:06.614Z,14.65
2023-05-18T08:44:45.738Z,14.58
2023-05-18T08:47:14.552Z,14.64
2023-05-18T08:52:18.349Z,14.77
2023-05-18T08:54:44.770Z,14.77
2023-05-18T08:57:12.177Z,14.80
2023-05-18T08:59:44.334Z,15.01
2023-05-18T09:02:11.315Z,15.21
2023-05-18T09:04:38.348Z,15.37
2023-05-18T09:07:06.380Z,15.55
2023-05-18T09:09:33.292Z,15.78
2023-05-18T09:11:59.951Z,15.96
2023-05-18T09:14:26.268Z,16.14
2023-05-18T09:16:55.374Z,16.24
2023-05-18T09:19:21.973Z,16.48
2023-05-18T09:21:48.362Z,16.65
2023-05-18T09:24:14.852Z,16.67
2023-05-18T09:26:41.448Z,16.62
2023-05-18T09:29:18.916Z,16.38
2023-05-18T09:31:45.921Z,16.62
2023-05-18T09:34:13.009Z,16.84
2023-05-18T09:36:39.353Z,16.92
2023-05-18T09:39:12.453Z,16.64
2023-05-18T09:41:39.408Z,16.48
2023-05-18T09:44:06.174Z,16.53
2023-05-18T09:46:35.958Z,16.41
2023-05-18T09:49:03.787Z,16.16
2023-05-18T09:51:30.149Z,16.08
2023-05-18T09:53:58.732Z,16.16
2023-05-18T09:56:26.491Z,16.39
2023-05-18T09:58:53.410Z,16.72
2023-05-18T10:01:20.015Z,16.96
2023-05-18T10:03:46.576Z,16.80
2023-05-18T10:06:12.905Z,16.85
2023-05-18T10:08:40.267Z,16.81
2023-05-18T10:11:07.417Z,16.90
2023-05-18T10:13:34.183Z,16.74
2023-05-18T10:16:02.845Z,16.86
2023-05-18T10:18:31.075Z,17.06
2023-05-18T10:21:00.342Z,17.09
2023-05-18T10:23:31.592Z,16.98
2023-05-18T10:25:59.113Z,17.13
2023-05-18T10:28:38.240Z,17.28
2023-05-18T10:31:07.177Z,17.34
2023-05-18T10:33:35.886Z,17.66
2023-05-18T10:36:03.827Z,17.91
2023-05-18T10:38:30.865Z,17.89
2023-05-18T10:41:01.072Z,17.98
2023-05-18T10:43:28.584Z,18.09
2023-05-18T10:45:56.876Z,18.06
2023-05-18T10:48:24.910Z,17.97
2023-05-18T10:50:53.985Z,17.93
2023-05-18T10:53:25.774Z,17.78
2023-05-18T10:55:53.153Z,17.63
2023-05-18T10:58:22.476Z,17.63
2023-05-18T11:00:57.763Z,17.31
2023-05-18T11:03:25.577Z,17.22
2023-05-18T11:06:03.774Z,17.15
2023-05-18T11:08:30.139Z,17.24
2023-05-18T11:11:04.790Z,17.03
2023-05-18T11:13:32.296Z,17.09
2023-05-18T11:15:58.825Z,17.16
2023-05-18T11:18:54.463Z,17.19
2023-05-18T11:21:23.722Z,17.15
2023-05-18T11:24:21.610Z,17.01
2023-05-18T11:26:51.111Z,17.02
2023-05-18T11:29:41.088Z,17.14
2023-05-18T11:32:29.832Z,17.19
2023-05-18T11:34:58.261Z,17.20
2023-05-18T11:37:39.733Z,17.24
2023-05-18T11:40:11.345Z,17.20
2023-05-18T11:42:38.156Z,17.15
2023-05-18T11:45:08.078Z,17.10
2023-05-18T11:47:35.383Z,17.16
2023-05-18T11:50:02.356Z,17.21
2023-05-18T11:52:29.859Z,17.30
2023-05-18T11:55:00.589Z,17.25
2023-05-18T11:57:39.085Z,17.21
2023-05-18T12:00:06.938Z,17.31
2023-05-18T12:02:35.410Z,17.37
2023-05-18T12:05:06.960Z,17.47
2023-05-18T12:07:33.745Z,17.53
2023-05-18T12:10:02.225Z,17.62
2023-05-18T12:12:29.281Z,17.71
2023-05-18T12:15:00.619Z,17.82
2023-05-18T12:17:40.773Z,17.69
2023-05-18T12:20:17.980Z,17.54
2023-05-18T12:22:50.090Z,17.53
2023-05-18T12:25:16.441Z,17.61
2023-05-18T12:27:45.894Z,17.66
2023-05-18T12:30:16.430Z,17.56
2023-05-18T12:32:51.964Z,17.45
2023-05-18T12:35:31.539Z,17.42
2023-05-18T12:37:59.657Z,17.50
2023-05-18T12:40:26.615Z,17.53
2023-05-18T12:42:54.620Z,17.27
2023-05-18T12:45:26.594Z,17.15
2023-05-18T12:47:53.652Z,17.14
2023-05-18T12:50:20.696Z,17.10
2023-05-18T12:52:51.644Z,17.07
2023-05-18T12:55:19.728Z,17.07
2023-05-18T12:57:46.130Z,17.12
2023-05-18T13:00:13.001Z,17.23
2023-05-18T13:02:39.421Z,17.21
2023-05-18T13:05:11.227Z,17.17
2023-05-18T13:07:42.466Z,17.25
2023-05-18T13:10:11.844Z,17.35
2023-05-18T13:12:39.215Z,17.38
2023-05-18T13:15:23.889Z,17.36
2023-05-18T13:18:05.423Z,17.21
2023-05-18T13:20:36.685Z,17.35
2023-05-18T13:23:06.943Z,17.42
2023-05-18T13:25:33.689Z,17.47
2023-05-18T13:28:01.091Z,17.45
2023-05-18T13:30:27.387Z,17.47
2023-05-18T13:32:53.907Z,17.46
2023-05-18T13:35:20.733Z,17.57
2023-05-18T13:37:48.292Z,17.60
2023-05-18T13:40:19.164Z,17.41
2023-05-18T13:42:46.655Z,17.42
2023-05-18T13:45:15.896Z,17.50
2023-05-18T13:47:43.215Z,17.65
2023-05-18T13:50:10.040Z,17.59
2023-05-18T13:52:36.989Z,17.54
2023-05-18T13:55:04.500Z,17.45
2023-05-18T13:57:31.348Z,17.46
2023-05-18T13:59:58.270Z,17.56
2023-05-18T14:02:26.108Z,17.69
2023-05-18T14:04:52.670Z,17.57
2023-05-18T14:07:19.400Z,17.69
2023-05-18T14:09:45.745Z,17.79
2023-05-18T14:12:12.088Z,17.87
2023-05-18T14:14:39.149Z,17.83
2023-05-18T14:17:05.521Z,17.84
2023-05-18T14:19:31.992Z,17.76
2023-05-18T14:21:58.324Z,17.89
2023-05-18T14:24:24.750Z,18.01
2023-05-18T14:26:51.105Z,18.12
2023-05-18T14:29:17.458Z,18.16
2023-05-18T14:31:43.847Z,18.27
2023-05-18T14:34:10.222Z,18.02
2023-05-18T14:36:36.576Z,17.90
2023-05-18T14:39:03.089Z,17.90
2023-05-18T14:41:29.575Z,17.78
2023-05-18T14:43:55.955Z,17.78
2023-05-18T14:46:22.705Z,17.57
2023-05-18T14:48:49.111Z,17.57
2023-05-18T14:51:15.593Z,17.57
2023-05-18T14:53:42.036Z,17.55
2023-05-18T14:56:08.504Z,17.66
2023-05-18T14:58:35.814Z,17.64
2023-05-18T15:01:02.353Z,17.75
2023-05-18T15:03:28.906Z,17.81
2023-05-18T15:05:55.351Z,17.96
2023-05-18T15:08:21.688Z,18.05
2023-05-18T15:13:29.558Z,18.20
2023-05-18T15:15:55.931Z,18.32
2023-05-18T15:18:22.294Z,18.40
2023-05-18T15:20:48.637Z,18.35
2023-05-18T15:23:14.980Z,18.38
2023-05-18T15:25:44.485Z,18.33
2023-05-18T15:33:34.542Z,18.58
2023-05-18T15:38:36.276Z,19.00
2023-05-18T15:41:02.655Z,19.12
2023-05-18T15:43:29.001Z,19.27
2023-05-18T15:45:55.503Z,19.23
2023-05-18T15:48:21.943Z,19.26
2023-05-18T15:50:48.282Z,19.35
2023-05-18T15:53:14.763Z,19.45
2023-05-18T15:55:41.357Z,19.59
2023-05-18T15:58:07.671Z,19.78
2023-05-18T16:00:33.995Z,19.54
2023-05-18T16:03:00.554Z,19.42
2023-05-18T16:05:26.954Z,19.48
2023-05-18T16:07:53.386Z,19.51
2023-05-18T16:10:19.738Z,19.65
2023-05-18T16:12:46.063Z,19.88
2023-05-18T16:15:12.536Z,19.87
2023-05-18T16:17:38.888Z,19.86
2023-05-18T16:20:05.824Z,20.25
2023-05-18T16:22:32.245Z,20.20
2023-05-18T16:24:58.735Z,20.51
2023-05-18T16:27:25.110Z,21.05
2023-05-18T16:29:51.497Z,21.37
2023-05-18T16:32:17.855Z,21.69
2023-05-18T16:34:44.181Z,22.01
2023-05-18T16:37:10.663Z,22.49
2023-05-18T16:39:37.196Z,23.06
2023-05-18T16:42:03.682Z,23.20
2023-05-18T16:44:30.054Z,23.80
2023-05-18T16:46:56.464Z,24.37
2023-05-18T16:49:22.923Z,24.62
2023-05-18T16:51:49.334Z,25.25
2023-05-18T16:54:15.820Z,25.34
2023-05-18T16:56:42.227Z,25.74
2023-05-18T16:59:08.551Z,26.11
2023-05-18T17:01:35.018Z,26.13
2023-05-18T17:04:01.510Z,26.32
2023-05-18T17:06:27.964Z,26.63
2023-05-18T17:08:54.429Z,26.88
2023-05-18T17:11:20.774Z,26.76
2023-05-18T17:13:47.127Z,26.03
2023-05-18T17:16:13.570Z,26.22
2023-05-18T17:18:40.000Z,26.03
2023-05-18T17:21:06.411Z,25.88
2023-05-18T17:23:32.760Z,26.30
2023-05-18T17:26:05.863Z,26.92
2023-05-18T17:28:33.175Z,26.86
2023-05-18T17:30:59.580Z,25.66
2023-05-18T17:33:26.014Z,24.63
2023-05-18T17:35:52.353Z,24.12
2023-05-18T17:38:18.746Z,23.74
2023-05-18T17:40:45.090Z,22.98
2023-05-18T17:43:11.442Z,22.91
2023-05-18T17:45:37.850Z,22.88
2023-05-18T17:48:04.549Z,22.70
2023-05-18T17:50:31.223Z,22.28
2023-05-18T17:52:57.704Z,22.05
2023-05-18T17:55:24.182Z,21.89
2023-05-18T17:57:51.244Z,22.16
2023-05-18T18:00:17.867Z,22.47
2023-05-18T18:02:44.265Z,22.95
2023-05-18T18:05:10.825Z,22.80
2023-05-18T18:07:37.189Z,22.38
2023-05-18T18:10:03.781Z,21.87
2023-05-18T18:12:30.182Z,21.33
2023-05-18T18:14:56.525Z,20.56
2023-05-18T18:17:22.970Z,20.04
2023-05-18T18:19:49.443Z,19.45
2023-05-18T18:22:15.831Z,18.97
2023-05-18T18:24:42.172Z,18.63
2023-05-18T18:27:08.515Z,18.08
2023-05-18T18:29:34.970Z,17.75
2023-05-18T18:32:01.308Z,17.67
2023-05-18T18:34:27.649Z,17.54
2023-05-18T18:36:54.020Z,17.36
2023-05-18T18:39:20.388Z,17.15
2023-05-18T18:41:46.802Z,16.88
2023-05-18T18:44:13.129Z,16.69
2023-05-18T18:46:39.537Z,16.37
2023-05-18T18:49:05.961Z,16.18
2023-05-18T18:51:32.323Z,16.03
2023-05-18T18:53:58.760Z,15.84
2023-05-18T18:56:25.155Z,15.74
2023-05-18T18:58:51.496Z,15.59
2023-05-18T19:01:18.111Z,15.53
2023-05-18T19:03:44.478Z,15.41
2023-05-18T19:06:10.911Z,15.36
2023-05-18T19:08:37.336Z,15.27
2023-05-18T19:11:03.806Z,15.18
2023-05-18T19:13:30.144Z,15.10
2023-05-18T19:15:56.645Z,15.03
2023-05-18T19:18:22.994Z,14.96
2023-05-18T19:20:49.338Z,14.86
2023-05-18T19:23:15.672Z,14.85
2023-05-18T19:25:42.238Z,14.78
2023-05-18T19:28:08.605Z,14.72
2023-05-18T19:30:35.181Z,14.67
2023-05-18T19:33:01.686Z,14.66
2023-05-18T19:35:28.105Z,14.65
2023-05-18T19:37:54.613Z,14.62
2023-05-18T19:40:20.949Z,14.56
2023-05-18T19:42:47.395Z,14.55
2023-05-18T19:45:13.733Z,14.54
2023-05-18T19:47:40.146Z,14.52
2023-05-18T19:50:07.119Z,14.46
2023-05-18T19:52:33.775Z,14.41
2023-05-18T19:55:00.228Z,14.33
2023-05-18T19:57:26.631Z,14.21
2023-05-18T19:59:53.361Z,14.12
2023-05-18T20:02:19.739Z,14.02
2023-05-18T20:04:46.064Z,13.89
2023-05-18T20:07:12.400Z,13.82
2023-05-18T20:09:38.763Z,13.78
2023-05-18T20:12:05.261Z,13.71
2023-05-18T20:14:31.657Z,13.63
2023-05-18T20:16:58.642Z,13.59
2023-05-18T20:19:25.660Z,13.54
2023-05-18T20:21:51.996Z,13.47
2023-05-18T20:24:18.354Z,13.40
2023-05-18T20:26:44.756Z,13.33
2023-05-18T20:29:11.091Z,13.28
2023-05-18T20:31:37.514Z,13.23
2023-05-18T20:34:03.886Z,13.16
2023-05-18T20:36:30.200Z,13.15
2023-05-18T20:38:56.642Z,13.14
2023-05-18T20:41:23.018Z,13.13
2023-05-18T20:43:49.434Z,13.14
2023-05-18T20:46:15.774Z,13.09
2023-05-18T20:48:43.019Z,13.11
2023-05-18T20:51:09.359Z,13.09
2023-05-18T20:53:35.655Z,13.07
2023-05-18T20:56:02.021Z,13.09
2023-05-18T20:58:28.603Z,13.10
2023-05-18T21:00:54.923Z,13.07
2023-05-18T21:03:21.578Z,13.05
2023-05-18T21:05:48.849Z,13.05
2023-05-18T21:08:15.609Z,13.02
2023-05-18T21:10:42.135Z,13.02
2023-05-18T21:13:08.604Z,13.03
2023-05-18T21:15:34.976Z,12.99
2023-05-18T21:18:01.387Z,12.93
2023-05-18T21:20:27.829Z,12.85
2023-05-18T21:22:54.168Z,12.80
2023-05-18T21:25:20.551Z,12.77
2023-05-18T21:27:46.902Z,12.70
2023-05-18T21:30:13.847Z,12.66
2023-05-18T21:32:40.424Z,12.64
2023-05-18T21:35:07.040Z,12.61
2023-05-18T21:37:33.385Z,12.58
2023-05-18T21:39:59.779Z,12.55
2023-05-18T21:42:26.092Z,12.53
2023-05-18T21:44:53.428Z,12.51
2023-05-18T21:47:19.745Z,12.48
2023-05-18T21:49:46.097Z,12.49
2023-05-18T21:52:12.411Z,12.50
2023-05-18T21:54:38.733Z,12.53
2023-05-18T21:57:05.467Z,12.54
2023-05-18T21:59:31.869Z,12.57
2023-05-18T22:01:58.446Z,12.58
2023-05-18T22:04:24.906Z,12.64
2023-05-18T22:06:54.351Z,12.67
2023-05-18T22:09:20.940Z,12.70
2023-05-18T22:11:47.271Z,12.73
2023-05-18T22:14:14.987Z,12.73
2023-05-18T22:16:43.417Z,12.72
2023-05-18T22:19:09.805Z,12.70
2023-05-18T22:21:36.211Z,12.64
2023-05-18T22:24:02.592Z,12.51
2023-05-18T22:26:29.011Z,12.46
2023-05-18T22:28:55.378Z,12.42
2023-05-18T22:31:21.838Z,12.37
2023-05-18T22:33:48.178Z,12.31
2023-05-18T22:36:14.521Z,12.23
2023-05-18T22:38:40.960Z,12.15
2023-05-18T22:41:07.390Z,12.09
2023-05-18T22:43:33.742Z,12.07
2023-05-18T22:46:00.236Z,11.99
2023-05-18T22:48:26.663Z,11.90
2023-05-18T22:50:53.058Z,11.81
2023-05-18T22:53:19.399Z,11.76
2023-05-18T22:55:45.872Z,11.74
2023-05-18T22:58:12.315Z,11.67
2023-05-18T23:00:38.695Z,11.62
2023-05-18T23:03:05.056Z,11.59
2023-05-18T23:05:31.610Z,11.56
2023-05-18T23:07:58.048Z,11.50
2023-05-18T23:10:24.573Z,11.51
2023-05-18T23:12:50.903Z,11.48
2023-05-18T23:15:17.344Z,11.49
2023-05-18T23:17:43.720Z,11.47
2023-05-18T23:20:10.720Z,11.43
2023-05-18T23:22:37.086Z,11.41
2023-05-18T23:25:03.979Z,11.42
2023-05-18T23:27:30.522Z,11.43
2023-05-18T23:29:56.831Z,11.41
2023-05-18T23:32:23.504Z,11.40
2023-05-18T23:34:50.264Z,11.42
2023-05-18T23:37:18.094Z,11.39
2023-05-18T23:39:45.902Z,11.38
2023-05-18T23:42:12.510Z,11.37
2023-05-18T23:44:39.289Z,11.31
2023-05-18T23:47:05.928Z,11.31
2023-05-18T23:49:32.604Z,11.25
2023-05-18T23:52:02.086Z,11.23
2023-05-18T23:54:28.962Z,11.22
2023-05-18T23:56:55.572Z,11.13
2023-05-18T23:59:22.339Z,11.09
